Time;durP1;ratioP1;P1;durP2;ratioP2;P2;SDS_P1;SDS_P2;PMS_P1;PMS_P2;Temp;Humidity;BMP_temperature;BMP_pressure;BME280_temperature;BME280_humidity;BME280_pressure;Samples;Min_cycle;Max_cycle;Signal;HPM_P1;HPM_P2
2021/11/26 00:00:15;;;;;;;125.80;67.28;;;;;;;-0.28;100.00;98073.69;2038465;29;20231;-73
2021/11/26 00:01:16;;;;;;;134.10;69.93;;;;;;;-0.26;100.00;98065.63;2038835;28;20614;-72
2021/11/26 00:02:19;;;;;;;133.68;67.93;;;;;;;-0.26;100.00;98070.03;2038528;29;20226;-72
2021/11/26 00:03:21;;;;;;;141.70;69.57;;;;;;;-0.23;100.00;98075.59;2038567;29;20282;-72
2021/11/26 00:04:25;;;;;;;136.10;69.47;;;;;;;-0.24;100.00;98068.78;2037978;28;20237;-72
2021/11/26 00:05:26;;;;;;;133.93;68.28;;;;;;;-0.20;100.00;98077.69;2038758;28;20595;-72
2021/11/26 00:06:28;;;;;;;137.07;66.73;;;;;;;-0.19;100.00;98074.03;2038185;29;20244;-73
2021/11/26 00:07:29;;;;;;;130.68;67.43;;;;;;;-0.15;100.00;98074.34;2038384;29;20315;-72
2021/11/26 00:08:31;;;;;;;132.73;66.83;;;;;;;-0.14;100.00;98068.06;2039130;28;20227;-72
2021/11/26 00:09:32;;;;;;;139.80;69.22;;;;;;;-0.10;100.00;98069.91;2038249;29;20475;-72
2021/11/26 00:10:34;;;;;;;132.40;68.40;;;;;;;-0.08;100.00;98072.31;2038306;29;20227;-72
2021/11/26 00:11:35;;;;;;;135.90;68.43;;;;;;;-0.05;100.00;98067.34;2038847;28;20273;-72
2021/11/26 00:12:40;;;;;;;128.25;67.95;;;;;;;-0.04;100.00;98076.78;2038765;28;20230;-74
2021/11/26 00:13:44;;;;;;;126.93;66.70;;;;;;;-0.03;100.00;98073.13;2038911;28;20234;-72
2021/11/26 00:14:49;;;;;;;129.05;67.13;;;;;;;-0.01;100.00;98078.88;2038933;28;20230;-72
2021/11/26 00:15:52;;;;;;;132.63;69.70;;;;;;;0.02;100.00;98080.25;2038530;29;20753;-72
2021/11/26 00:16:56;;;;;;;143.02;68.20;;;;;;;0.03;100.00;98078.41;2037824;29;20372;-72
2021/11/26 00:18:04;;;;;;;132.38;67.45;;;;;;;0.02;100.00;98084.69;2038207;29;20617;-72
2021/11/26 00:19:07;;;;;;;141.85;68.43;;;;;;;0.06;100.00;98083.94;2031128;29;20725;-72
2021/11/26 00:20:09;;;;;;;126.38;67.68;;;;;;;0.07;100.00;98082.88;2037637;29;20324;-72
2021/11/26 00:21:11;;;;;;;130.43;68.75;;;;;;;0.10;100.00;98079.78;2038298;29;20607;-72
2021/11/26 00:22:12;;;;;;;134.27;67.45;;;;;;;0.11;100.00;98080.56;2038913;28;20597;-72
2021/11/26 00:23:14;;;;;;;126.07;67.13;;;;;;;0.11;100.00;98077.94;2039030;28;20222;-72
2021/11/26 00:24:17;;;;;;;139.43;69.30;;;;;;;0.12;100.00;98074.28;2038024;29;20234;-72
2021/11/26 00:25:23;;;;;;;129.57;68.40;;;;;;;0.14;100.00;98080.03;2038219;29;20770;-72
2021/11/26 00:26:23;;;;;;;134.68;67.45;;;;;;;0.18;100.00;98075.91;2037775;29;20231;-72
2021/11/26 00:27:25;;;;;;;139.63;68.70;;;;;;;0.18;100.00;98075.91;2030411;29;20720;-72
2021/11/26 00:28:28;;;;;;;129.32;66.88;;;;;;;0.21;100.00;98080.63;2038104;29;20326;-71
2021/11/26 00:29:29;;;;;;;129.25;66.85;;;;;;;0.21;100.00;98084.03;2038401;29;20678;-72
2021/11/26 00:30:31;;;;;;;128.40;66.57;;;;;;;0.22;100.00;98079.56;2030278;29;20630;-73
2021/11/26 00:31:32;;;;;;;131.00;68.20;;;;;;;0.21;100.00;98076.16;2038064;29;20290;-72
2021/11/26 00:32:35;;;;;;;139.57;69.95;;;;;;;0.24;100.00;98080.09;2038846;28;20247;-72
2021/11/26 00:33:37;;;;;;;124.22;67.18;;;;;;;0.26;100.00;98078.84;2038858;28;20583;-72
2021/11/26 00:34:37;;;;;;;124.18;65.13;;;;;;;0.26;100.00;98078.84;2038262;28;20670;-72
2021/11/26 00:35:39;;;;;;;131.77;67.43;;;;;;;0.28;100.00;98081.19;2038012;29;20573;-71
2021/11/26 00:36:40;;;;;;;130.95;68.55;;;;;;;0.31;100.00;98091.19;2030196;29;20654;-72
2021/11/26 00:37:42;;;;;;;134.33;66.93;;;;;;;0.32;100.00;98087.50;2038298;29;20293;-72
2021/11/26 00:38:44;;;;;;;137.30;71.28;;;;;;;0.34;100.00;98085.41;2038230;29;20226;-73
2021/11/26 00:39:45;;;;;;;134.80;71.35;;;;;;;0.35;100.00;98086.19;2037796;29;20253;-72
2021/11/26 00:40:47;;;;;;;129.73;68.47;;;;;;;0.38;100.00;98085.72;2037969;29;20690;-72
2021/11/26 00:41:48;;;;;;;136.20;71.18;;;;;;;0.40;100.00;98081.78;2038050;29;20219;-72
2021/11/26 00:42:49;;;;;;;136.60;70.20;;;;;;;0.41;100.00;98082.56;2030206;29;20220;-72
2021/11/26 00:43:52;;;;;;;134.15;69.70;;;;;;;0.41;100.00;98080.75;2030331;29;20761;-73
2021/11/26 00:44:53;;;;;;;126.47;68.57;;;;;;;0.45;100.00;98076.56;2037617;29;20277;-72
2021/11/26 00:45:56;;;;;;;125.95;65.40;;;;;;;0.45;100.00;98071.34;2038637;28;20776;-72
2021/11/26 00:46:58;;;;;;;129.75;67.20;;;;;;;0.45;100.00;98065.28;2038055;29;20287;-72
2021/11/26 00:47:59;;;;;;;131.50;66.85;;;;;;;0.46;100.00;98051.13;2038046;29;20234;-72
2021/11/26 00:49:01;;;;;;;132.15;67.32;;;;;;;0.45;100.00;98044.31;2038397;28;20756;-72
2021/11/26 00:50:02;;;;;;;127.20;68.13;;;;;;;0.45;100.00;98045.09;2037316;29;20715;-72
2021/11/26 00:51:04;;;;;;;122.78;65.50;;;;;;;0.44;100.00;98046.13;2030228;29;20310;-72
2021/11/26 00:52:07;;;;;;;120.22;66.45;;;;;;;0.42;100.00;98048.19;2030202;29;20314;-72
2021/11/26 00:53:10;;;;;;;125.95;66.90;;;;;;;0.42;100.00;98052.66;2037842;28;20314;-72
2021/11/26 00:54:11;;;;;;;124.80;65.80;;;;;;;0.42;100.00;98050.81;2037944;29;20238;-72
2021/11/26 00:55:15;;;;;;;128.90;66.47;;;;;;;0.43;100.00;98049.00;2038184;29;20230;-72
2021/11/26 00:56:15;;;;;;;130.48;66.53;;;;;;;0.42;100.00;98044.78;2037926;29;20222;-72
2021/11/26 00:57:17;;;;;;;131.00;66.67;;;;;;;0.43;100.00;98051.63;2038024;29;20776;-72
2021/11/26 00:58:19;;;;;;;118.05;64.35;;;;;;;0.42;100.00;98044.78;2038025;29;20832;-72
2021/11/26 00:59:21;;;;;;;121.95;67.65;;;;;;;0.42;100.00;98040.34;2038023;29;20232;-72
2021/11/26 01:00:24;;;;;;;127.50;67.28;;;;;;;0.44;100.00;98047.97;2037412;29;20243;-73
2021/11/26 01:01:25;;;;;;;134.02;68.90;;;;;;;0.43;100.00;98036.66;2030112;29;20670;-72
2021/11/26 01:02:27;;;;;;;134.13;69.33;;;;;;;0.46;100.00;98041.41;2030011;29;20657;-72
2021/11/26 01:03:28;;;;;;;130.35;67.43;;;;;;;0.45;100.00;98045.09;2037955;29;20235;-72
2021/11/26 01:04:29;;;;;;;126.30;67.25;;;;;;;0.45;100.00;98039.06;2038759;28;20226;-72
2021/11/26 01:05:31;;;;;;;127.10;66.40;;;;;;;0.43;100.00;98039.28;2037906;29;20728;-72
2021/11/26 01:06:32;;;;;;;126.13;65.45;;;;;;;0.45;100.00;98039.84;2038004;29;20230;-72
2021/11/26 01:07:34;;;;;;;126.53;67.72;;;;;;;0.48;100.00;98047.19;2038744;28;20768;-72
2021/11/26 01:08:35;;;;;;;128.75;70.18;;;;;;;0.49;100.00;98040.09;2037853;29;20796;-72
2021/11/26 01:09:37;;;;;;;125.03;67.77;;;;;;;0.47;100.00;98031.72;2038020;29;20633;-72
2021/11/26 01:10:38;;;;;;;122.93;67.55;;;;;;;0.48;100.00;98031.44;2037473;29;20230;-72
2021/11/26 01:11:40;;;;;;;127.00;66.73;;;;;;;0.48;100.00;98028.81;2037884;29;20238;-72
2021/11/26 01:12:41;;;;;;;132.40;68.47;;;;;;;0.50;100.00;98024.09;2038612;28;20573;-72
2021/11/26 01:13:45;;;;;;;135.98;69.97;;;;;;;0.52;100.00;98021.22;2038742;28;20242;-72
2021/11/26 01:14:48;;;;;;;122.68;65.93;;;;;;;0.51;100.00;98017.81;2038754;28;20223;-72
2021/11/26 01:15:51;;;;;;;131.07;66.95;;;;;;;0.51;100.00;98023.06;2038676;28;20629;-72
2021/11/26 01:16:52;;;;;;;129.05;68.55;;;;;;;0.50;100.00;98016.22;2038383;28;20235;-73
2021/11/26 01:17:55;;;;;;;138.80;69.97;;;;;;;0.50;100.00;98010.97;2038724;28;20627;-71
2021/11/26 01:18:55;;;;;;;131.50;68.25;;;;;;;0.52;100.00;98024.66;2038572;28;20756;-71
2021/11/26 01:19:57;;;;;;;130.33;68.70;;;;;;;0.51;100.00;98023.06;2037850;29;21277;-72
2021/11/26 01:20:59;;;;;;;129.15;69.38;;;;;;;0.52;100.00;98018.59;2030025;29;20239;-72
2021/11/26 01:22:01;;;;;;;124.72;67.95;;;;;;;0.51;100.00;98022.28;2037897;29;20219;-72
2021/11/26 01:23:03;;;;;;;140.13;71.45;;;;;;;0.51;100.00;98014.41;2038599;28;20700;-72
2021/11/26 01:24:05;;;;;;;136.65;69.32;;;;;;;0.51;100.00;98017.03;2037848;29;20238;-73
2021/11/26 01:25:07;;;;;;;130.32;69.30;;;;;;;0.50;100.00;98012.81;2030167;29;20248;-72
2021/11/26 01:26:09;;;;;;;130.45;70.13;;;;;;;0.49;100.00;98008.63;2037570;29;20226;-72
2021/11/26 01:27:09;;;;;;;132.90;68.25;;;;;;;0.49;100.00;97998.91;2037783;29;20227;-72
2021/11/26 01:28:12;;;;;;;126.70;66.83;;;;;;;0.51;100.00;98004.69;2037909;29;20287;-73
2021/11/26 01:29:13;;;;;;;132.40;69.40;;;;;;;0.52;100.00;97998.41;2037879;29;20336;-72
2021/11/26 01:30:23;;;;;;;138.53;70.30;;;;;;;0.50;100.00;97999.69;2038046;29;20226;-72
2021/11/26 01:31:24;;;;;;;133.05;69.93;;;;;;;0.54;100.00;98001.56;2037665;28;20237;-72
2021/11/26 01:32:26;;;;;;;134.45;69.22;;;;;;;0.55;100.00;98000.53;2038572;28;20234;-72
2021/11/26 01:33:28;;;;;;;135.85;68.45;;;;;;;0.53;100.00;97994.75;2037826;29;20277;-72
2021/11/26 01:34:28;;;;;;;131.75;69.05;;;;;;;0.57;100.00;97998.41;2037941;29;20301;-72
2021/11/26 01:35:32;;;;;;;126.07;67.95;;;;;;;0.58;100.00;97993.97;2037702;29;20234;-72
2021/11/26 01:36:34;;;;;;;127.75;67.43;;;;;;;0.57;100.00;97990.56;2037956;29;20346;-73
2021/11/26 01:37:35;;;;;;;125.63;66.77;;;;;;;0.59;100.00;97982.41;2038669;28;20258;-72
2021/11/26 01:38:36;;;;;;;134.13;70.07;;;;;;;0.60;100.00;97985.81;2038506;28;20226;-72
2021/11/26 01:39:38;;;;;;;125.70;65.83;;;;;;;0.59;100.00;97986.88;2037984;28;20263;-72
2021/11/26 01:40:40;;;;;;;127.45;67.45;;;;;;;0.63;100.00;97995.81;2038436;28;20745;-72
2021/11/26 01:41:44;;;;;;;119.70;67.45;;;;;;;0.61;100.00;97979.53;2037735;29;20230;-72
2021/11/26 01:42:47;;;;;;;127.47;69.75;;;;;;;0.62;100.00;97991.63;2037870;29;20609;-72
2021/11/26 01:43:49;;;;;;;129.18;69.32;;;;;;;0.61;100.00;97982.97;2038613;28;20247;-72
2021/11/26 01:44:50;;;;;;;127.75;68.03;;;;;;;0.67;100.00;97981.91;2038503;28;20231;-72
2021/11/26 01:45:55;;;;;;;119.37;66.23;;;;;;;0.65;100.00;97973.53;2038584;28;20282;-72
2021/11/26 01:46:55;;;;;;;136.00;67.68;;;;;;;0.68;100.00;97977.47;2038202;28;20294;-72
2021/11/26 01:47:57;;;;;;;122.53;68.43;;;;;;;0.68;100.00;97987.97;2037955;29;20235;-72
2021/11/26 01:48:58;;;;;;;133.77;70.72;;;;;;;0.67;100.00;97981.13;2037911;29;20222;-72
2021/11/26 01:50:02;;;;;;;131.90;68.93;;;;;;;0.67;100.00;97987.16;2038539;28;20290;-72
2021/11/26 01:51:04;;;;;;;124.20;65.95;;;;;;;0.68;100.00;97990.59;2038572;28;20603;-72
2021/11/26 01:52:07;;;;;;;134.13;69.53;;;;;;;0.69;100.00;97982.44;2037726;29;20249;-72
2021/11/26 01:53:07;;;;;;;130.38;68.10;;;;;;;0.70;100.00;97983.25;2037500;29;20297;-72
2021/11/26 01:54:10;;;;;;;128.13;67.70;;;;;;;0.70;100.00;97994.53;2037565;29;20235;-72
2021/11/26 01:55:11;;;;;;;138.00;66.82;;;;;;;0.71;100.00;97993.50;2037871;29;20285;-72
2021/11/26 01:56:14;;;;;;;135.35;67.55;;;;;;;0.70;100.00;97991.13;2038433;28;20759;-72
2021/11/26 01:57:16;;;;;;;125.78;67.70;;;;;;;0.71;100.00;97985.63;2038422;28;20226;-73
2021/11/26 01:58:17;;;;;;;126.53;68.68;;;;;;;0.73;100.00;97988.78;2037801;29;20234;-72
2021/11/26 01:59:18;;;;;;;126.93;67.63;;;;;;;0.73;100.00;98003.72;2030040;29;20259;-72
2021/11/26 02:00:25;;;;;;;125.63;65.00;;;;;;;0.74;100.00;98000.84;2037738;29;20226;-72
2021/11/26 02:01:28;;;;;;;133.15;68.72;;;;;;;0.71;100.00;97997.97;2038588;29;20230;-72
2021/11/26 02:02:29;;;;;;;126.95;67.75;;;;;;;0.75;100.00;97999.00;2031635;29;20280;-72
2021/11/26 02:03:32;;;;;;;132.57;69.00;;;;;;;0.75;100.00;97993.75;2031478;29;20263;-73
2021/11/26 02:04:33;;;;;;;129.98;68.03;;;;;;;0.74;100.00;98000.06;2031836;29;20455;-72
2021/11/26 02:05:35;;;;;;;129.40;69.07;;;;;;;0.74;100.00;98005.31;2039230;29;20226;-72
2021/11/26 02:06:36;;;;;;;130.23;70.20;;;;;;;0.72;100.00;98004.78;2039160;29;20227;-72
2021/11/26 02:07:37;;;;;;;122.70;65.73;;;;;;;0.73;100.00;98011.59;2039051;29;20716;-75
2021/11/26 02:08:39;;;;;;;124.43;66.53;;;;;;;0.74;100.00;97997.44;2039170;29;20230;-72
2021/11/26 02:09:40;;;;;;;127.90;65.80;;;;;;;0.74;100.00;97989.56;2039910;28;20227;-72
2021/11/26 02:10:43;;;;;;;123.25;64.15;;;;;;;0.78;100.00;97998.47;2039376;29;20226;-72
2021/11/26 02:11:44;;;;;;;127.13;65.75;;;;;;;0.78;100.00;97994.03;2039232;29;20273;-72
2021/11/26 02:12:46;;;;;;;123.17;65.73;;;;;;;0.79;100.00;97998.25;2039321;29;20226;-71
2021/11/26 02:13:47;;;;;;;127.30;64.65;;;;;;;0.82;100.00;97991.69;2039146;29;20226;-72
2021/11/26 02:14:49;;;;;;;119.93;65.95;;;;;;;0.83;100.00;97988.78;2038961;29;20223;-72
2021/11/26 02:15:52;;;;;;;128.15;65.18;;;;;;;0.86;100.00;97990.09;2039234;29;20269;-73
2021/11/26 02:16:55;;;;;;;119.90;63.40;;;;;;;0.87;100.00;97991.72;2038581;29;20235;-72
2021/11/26 02:17:58;;;;;;;130.20;65.20;;;;;;;0.86;100.00;97992.72;2039116;29;20687;-71
2021/11/26 02:19:01;;;;;;;123.72;65.25;;;;;;;0.90;100.00;97987.75;2039859;28;20666;-72
2021/11/26 02:20:13;;;;;;;129.80;65.15;;;;;;;0.93;100.00;97982.78;2039795;28;20248;-72
2021/11/26 02:21:16;;;;;;;126.35;63.72;;;;;;;0.95;100.00;97978.03;2038504;29;20257;-72
2021/11/26 02:22:17;;;;;;;120.65;63.95;;;;;;;0.94;100.00;97984.34;2039243;29;20709;-73
2021/11/26 02:23:19;;;;;;;122.47;63.50;;;;;;;0.96;100.00;97982.28;2038978;29;20574;-72
2021/11/26 02:24:20;;;;;;;125.18;66.68;;;;;;;0.97;100.00;97980.44;2031249;29;20254;-72
2021/11/26 02:25:23;;;;;;;125.05;64.80;;;;;;;0.99;100.00;97975.69;2038997;29;20223;-72
2021/11/26 02:26:24;;;;;;;126.38;66.05;;;;;;;0.99;100.00;97975.69;2030956;29;20235;-72
2021/11/26 02:27:25;;;;;;;133.90;63.83;;;;;;;1.01;100.00;97976.22;2039084;29;20240;-72
2021/11/26 02:28:27;;;;;;;116.73;62.47;;;;;;;1.03;100.00;97976.75;2039707;28;20230;-72
2021/11/26 02:29:27;;;;;;;124.47;63.38;;;;;;;1.04;100.00;97970.44;2039805;28;20226;-71
2021/11/26 02:30:32;;;;;;;125.73;65.07;;;;;;;1.06;100.00;97976.25;2039731;28;20222;-71
2021/11/26 02:31:34;;;;;;;113.65;61.45;;;;;;;1.06;100.00;97971.78;2038897;29;20314;-72
2021/11/26 02:32:36;;;;;;;125.20;64.63;;;;;;;1.08;100.00;97964.41;2038955;29;20226;-71
2021/11/26 02:33:38;;;;;;;124.32;65.00;;;;;;;1.10;100.00;97962.31;2039124;28;20289;-73
2021/11/26 02:34:39;;;;;;;119.97;64.13;;;;;;;1.11;100.00;97957.84;2039081;29;20251;-72
2021/11/26 02:35:42;;;;;;;125.30;65.90;;;;;;;1.11;100.00;97956.00;2031043;29;20308;-72
2021/11/26 02:36:44;;;;;;;122.30;65.55;;;;;;;1.10;100.00;97943.94;2031150;29;20649;-72
2021/11/26 02:37:45;;;;;;;133.90;68.32;;;;;;;1.09;100.00;97947.59;2031069;29;20694;-72
2021/11/26 02:38:47;;;;;;;139.70;68.65;;;;;;;1.09;100.00;97952.06;2038785;29;20594;-72
2021/11/26 02:39:48;;;;;;;130.52;66.25;;;;;;;1.09;100.00;97960.75;2038800;29;20634;-72
2021/11/26 02:40:49;;;;;;;133.48;65.68;;;;;;;1.06;100.00;97950.78;2039539;28;20222;-72
2021/11/26 02:41:51;;;;;;;132.27;67.00;;;;;;;1.06;100.00;97958.66;2039719;28;20226;-72
2021/11/26 02:42:54;;;;;;;130.90;68.30;;;;;;;1.05;100.00;97957.06;2039239;28;20830;-73
2021/11/26 02:43:55;;;;;;;120.68;63.70;;;;;;;1.05;100.00;97954.44;2038858;29;20263;-72
2021/11/26 02:44:56;;;;;;;121.38;64.20;;;;;;;1.06;100.00;97956.03;2038896;29;20699;-72
2021/11/26 02:45:59;;;;;;;124.60;63.40;;;;;;;1.08;100.00;97953.91;2039604;28;20235;-72
2021/11/26 02:47:00;;;;;;;121.45;64.30;;;;;;;1.08;100.00;97959.16;2039580;28;20342;-72
2021/11/26 02:48:02;;;;;;;118.33;62.87;;;;;;;1.10;100.00;97962.31;2039620;28;20231;-72
2021/11/26 02:49:05;;;;;;;119.95;64.30;;;;;;;1.10;100.00;97946.56;2039585;28;20226;-72
2021/11/26 02:50:07;;;;;;;115.00;65.00;;;;;;;1.11;100.00;97950.75;2038842;29;20326;-72
2021/11/26 02:51:10;;;;;;;124.05;64.88;;;;;;;1.12;100.00;97944.44;2038551;28;20222;-73
2021/11/26 02:52:14;;;;;;;119.53;63.35;;;;;;;1.12;100.00;97938.41;2038619;29;20231;-72
2021/11/26 02:53:18;;;;;;;127.10;66.18;;;;;;;1.15;100.00;97935.28;2031311;29;20314;-72
2021/11/26 02:54:19;;;;;;;130.77;66.78;;;;;;;1.17;100.00;97938.44;2038756;29;20219;-72
2021/11/26 02:55:22;;;;;;;129.37;66.77;;;;;;;1.19;100.00;97927.66;2031045;29;20247;-72
2021/11/26 02:56:23;;;;;;;125.63;64.60;;;;;;;1.20;100.00;97924.75;2038614;28;20226;-72
2021/11/26 02:57:25;;;;;;;127.70;65.70;;;;;;;1.23;100.00;97928.72;2038609;29;20235;-72
2021/11/26 02:58:29;;;;;;;131.25;66.20;;;;;;;1.24;100.00;97928.44;2038871;29;20227;-72
2021/11/26 02:59:30;;;;;;;123.30;65.03;;;;;;;1.24;100.00;97935.53;2038987;29;20226;-72
2021/11/26 03:00:33;;;;;;;137.48;69.35;;;;;;;1.23;100.00;97926.88;2039062;29;20258;-72
2021/11/26 03:01:34;;;;;;;130.25;68.70;;;;;;;1.28;100.00;97936.56;2030975;29;20373;-72
2021/11/26 03:02:36;;;;;;;139.07;69.85;;;;;;;1.28;100.00;97941.84;2038757;29;20226;-72
2021/11/26 03:03:37;;;;;;;129.85;69.82;;;;;;;1.25;100.00;97926.59;2038828;29;20274;-72
2021/11/26 03:04:38;;;;;;;137.63;69.85;;;;;;;1.27;100.00;97929.75;2030599;29;20263;-72
2021/11/26 03:05:40;;;;;;;138.20;70.43;;;;;;;1.27;100.00;97933.16;2031125;29;20737;-72
2021/11/26 03:06:44;;;;;;;135.77;70.18;;;;;;;1.28;100.00;97918.19;2038838;29;20241;-71
2021/11/26 03:07:47;;;;;;;141.75;70.57;;;;;;;1.28;100.00;97921.59;2039102;29;20230;-73
2021/11/26 03:08:48;;;;;;;139.38;71.78;;;;;;;1.29;100.00;97917.13;2038679;29;20277;-72
2021/11/26 03:09:50;;;;;;;131.03;69.97;;;;;;;1.29;100.00;97915.28;2038707;29;20219;-72
2021/11/26 03:10:51;;;;;;;133.85;71.25;;;;;;;1.31;100.00;97907.16;2038462;29;20226;-72
2021/11/26 03:11:53;;;;;;;145.57;73.77;;;;;;;1.33;100.00;97912.94;2038838;28;20251;-74
2021/11/26 03:12:57;;;;;;;135.43;69.28;;;;;;;1.32;100.00;97917.41;2037804;29;20463;-72
2021/11/26 03:14:00;;;;;;;134.25;72.40;;;;;;;1.31;100.00;97909.81;2038760;29;20241;-72
2021/11/26 03:15:01;;;;;;;135.75;70.43;;;;;;;1.32;100.00;97904.28;2039370;28;20230;-72
2021/11/26 03:16:02;;;;;;;143.33;72.80;;;;;;;1.31;100.00;97901.91;2039435;28;20226;-73
2021/11/26 03:17:04;;;;;;;132.95;70.22;;;;;;;1.30;100.00;97895.06;2039228;28;20223;-72
2021/11/26 03:18:07;;;;;;;135.75;72.18;;;;;;;1.30;100.00;97900.31;2039419;28;20305;-72
2021/11/26 03:19:08;;;;;;;139.25;74.22;;;;;;;1.28;100.00;97889.28;2038128;29;20222;-72
2021/11/26 03:20:12;;;;;;;135.53;70.97;;;;;;;1.28;100.00;97890.06;2038729;29;20309;-72
2021/11/26 03:21:14;;;;;;;137.10;72.60;;;;;;;1.30;100.00;97898.50;2038523;29;20231;-73
2021/11/26 03:22:16;;;;;;;136.25;71.55;;;;;;;1.29;100.00;97894.28;2030749;29;20227;-71
2021/11/26 03:23:19;;;;;;;132.98;72.10;;;;;;;1.31;100.00;97900.06;2038540;29;20239;-72
2021/11/26 03:24:20;;;;;;;144.68;73.03;;;;;;;1.29;100.00;97898.75;2038641;29;20226;-72
2021/11/26 03:25:22;;;;;;;133.10;72.70;;;;;;;1.29;100.00;97896.13;2038485;29;20274;-72
2021/11/26 03:26:23;;;;;;;136.85;70.70;;;;;;;1.29;100.00;97896.13;2030350;29;20886;-72
2021/11/26 03:27:27;;;;;;;135.70;71.07;;;;;;;1.29;100.00;97899.53;2030555;29;20306;-73
2021/11/26 03:28:28;;;;;;;139.30;70.85;;;;;;;1.29;100.00;97907.41;2038623;29;20636;-72
2021/11/26 03:29:30;;;;;;;130.88;68.45;;;;;;;1.32;100.00;97911.38;2039156;28;20227;-72
2021/11/26 03:30:31;;;;;;;142.15;70.55;;;;;;;1.32;100.00;97906.13;2038405;29;20321;-72
2021/11/26 03:31:33;;;;;;;138.57;70.47;;;;;;;1.32;100.00;97906.91;2038537;29;20219;-73
2021/11/26 03:32:33;;;;;;;138.65;70.25;;;;;;;1.34;100.00;97904.00;2038585;29;20227;-72
2021/11/26 03:33:37;;;;;;;141.60;68.47;;;;;;;1.34;100.00;97904.78;2038556;29;20254;-72
2021/11/26 03:34:38;;;;;;;137.57;70.25;;;;;;;1.34;100.00;97899.53;2038033;29;20567;-72
2021/11/26 03:35:40;;;;;;;126.50;68.45;;;;;;;1.36;100.00;97899.28;2038648;29;20222;-73
2021/11/26 03:36:41;;;;;;;142.77;71.95;;;;;;;1.34;100.00;97888.25;2039280;28;20237;-72
2021/11/26 03:37:44;;;;;;;130.40;68.53;;;;;;;1.35;100.00;97885.34;2038396;29;20231;-72
2021/11/26 03:38:46;;;;;;;125.97;66.55;;;;;;;1.36;100.00;97891.38;2038451;29;20226;-72
2021/11/26 03:39:47;;;;;;;132.48;69.38;;;;;;;1.37;100.00;97892.97;2038242;29;20334;-72
2021/11/26 03:40:49;;;;;;;137.83;69.70;;;;;;;1.36;100.00;97881.66;2030573;29;20227;-73
2021/11/26 03:41:51;;;;;;;135.82;71.30;;;;;;;1.38;100.00;97869.03;2030600;29;20232;-72
2021/11/26 03:42:54;;;;;;;137.48;71.00;;;;;;;1.37;100.00;97871.94;2038123;28;20685;-73
2021/11/26 03:43:56;;;;;;;130.35;68.90;;;;;;;1.34;100.00;97875.09;2038301;29;20246;-72
2021/11/26 03:44:57;;;;;;;143.50;73.25;;;;;;;1.36;100.00;97875.63;2038524;29;20230;-72
2021/11/26 03:45:59;;;;;;;135.80;71.33;;;;;;;1.36;100.00;97875.63;2038394;29;20250;-72
2021/11/26 03:47:00;;;;;;;146.50;71.05;;;;;;;1.34;100.00;97875.09;2038423;29;20843;-72
2021/11/26 03:48:02;;;;;;;129.03;69.17;;;;;;;1.35;100.00;97874.03;2039128;28;20223;-72
2021/11/26 03:49:03;;;;;;;134.07;68.20;;;;;;;1.31;100.00;97873.00;2039130;28;20458;-72
2021/11/26 03:50:07;;;;;;;131.40;67.78;;;;;;;1.33;100.00;97871.69;2039195;28;20219;-72
2021/11/26 03:51:07;;;;;;;133.32;66.88;;;;;;;1.32;100.00;97864.88;2037987;29;20229;-72
2021/11/26 03:52:09;;;;;;;119.63;64.93;;;;;;;1.35;100.00;97874.03;2038361;29;20222;-72
2021/11/26 03:53:11;;;;;;;130.93;68.85;;;;;;;1.35;100.00;97872.19;2039128;28;20671;-72
2021/11/26 03:54:13;;;;;;;125.45;67.78;;;;;;;1.35;100.00;97869.56;2038312;29;20238;-72
2021/11/26 03:55:17;;;;;;;127.72;67.90;;;;;;;1.34;100.00;97861.97;2030443;29;20234;-72
2021/11/26 03:56:19;;;;;;;135.18;68.10;;;;;;;1.36;100.00;97859.84;2038419;29;20226;-72
2021/11/26 03:57:20;;;;;;;129.93;67.82;;;;;;;1.37;100.00;97869.31;2039143;28;20281;-72
2021/11/26 03:58:21;;;;;;;128.67;66.53;;;;;;;1.36;100.00;97863.25;2038299;29;20222;-71
2021/11/26 03:59:22;;;;;;;131.70;68.05;;;;;;;1.37;100.00;97856.16;2037850;29;20302;-72
2021/11/26 04:00:24;;;;;;;125.63;67.93;;;;;;;1.38;100.00;97848.00;2038192;29;20239;-72
2021/11/26 04:01:25;;;;;;;121.85;66.70;;;;;;;1.40;100.00;97845.16;2038161;29;20318;-72
2021/11/26 04:02:27;;;;;;;129.33;67.33;;;;;;;1.42;100.00;97843.03;2038364;29;20231;-72
2021/11/26 04:03:29;;;;;;;126.07;63.25;;;;;;;1.44;100.00;97843.53;2038205;29;20238;-72
2021/11/26 04:04:31;;;;;;;122.63;62.25;;;;;;;1.42;100.00;97835.94;2030835;29;20298;-72
2021/11/26 04:05:32;;;;;;;122.32;65.10;;;;;;;1.45;100.00;97841.72;2038377;29;20330;-72
2021/11/26 04:06:33;;;;;;;128.17;67.43;;;;;;;1.43;100.00;97849.84;2039136;28;20275;-72
2021/11/26 04:07:34;;;;;;;130.40;66.30;;;;;;;1.42;100.00;97850.91;2038254;29;20570;-72
2021/11/26 04:08:37;;;;;;;131.07;69.77;;;;;;;1.42;100.00;97853.53;2038268;29;20305;-72
2021/11/26 04:09:38;;;;;;;119.50;65.38;;;;;;;1.43;100.00;97852.50;2038502;28;20690;-72
2021/11/26 04:10:41;;;;;;;126.27;65.73;;;;;;;1.42;100.00;97850.91;2038985;28;20555;-72
2021/11/26 04:11:42;;;;;;;123.60;64.95;;;;;;;1.44;100.00;97850.66;2039008;28;20265;-72
2021/11/26 04:12:45;;;;;;;125.93;65.35;;;;;;;1.39;100.00;97848.81;2038989;28;20250;-72
2021/11/26 04:13:46;;;;;;;119.05;62.45;;;;;;;1.42;100.00;97859.59;2039021;28;20762;-72
2021/11/26 04:14:53;;;;;;;126.17;64.13;;;;;;;1.47;100.00;97861.41;2038392;29;20642;-73
2021/11/26 04:16:01;;;;;;;126.20;63.70;;;;;;;1.47;100.00;97852.72;2038036;28;20244;-71
2021/11/26 04:17:06;;;;;;;125.10;66.72;;;;;;;1.48;100.00;97852.50;2039004;28;20234;-71
2021/11/26 04:18:08;;;;;;;124.88;65.32;;;;;;;1.49;100.00;97853.28;2037715;29;20293;-72
2021/11/26 04:19:09;;;;;;;124.28;64.70;;;;;;;1.51;100.00;97854.56;2038239;29;20227;-72
2021/11/26 04:20:11;;;;;;;120.60;65.33;;;;;;;1.52;100.00;97853.53;2038905;28;20274;-72
2021/11/26 04:21:13;;;;;;;125.15;65.50;;;;;;;1.54;100.00;97855.88;2038034;29;20350;-73
2021/11/26 04:22:14;;;;;;;130.43;72.05;;;;;;;1.56;100.00;97851.91;2038149;29;20238;-72
2021/11/26 04:23:16;;;;;;;143.80;73.37;;;;;;;1.58;100.00;97849.03;2038161;29;20237;-72
2021/11/26 04:24:20;;;;;;;138.75;72.82;;;;;;;1.57;100.00;97850.88;2038075;29;20226;-72
2021/11/26 04:25:22;;;;;;;142.25;73.50;;;;;;;1.59;100.00;97845.34;2038769;28;20281;-72
2021/11/26 04:26:22;;;;;;;149.65;74.97;;;;;;;1.58;100.00;97841.94;2038596;28;20222;-73
2021/11/26 04:27:24;;;;;;;146.43;73.20;;;;;;;1.60;100.00;97837.19;2038276;29;20260;-72
2021/11/26 04:28:25;;;;;;;140.65;74.57;;;;;;;1.61;100.00;97833.50;2038094;29;20231;-72
2021/11/26 04:29:27;;;;;;;134.23;71.40;;;;;;;1.63;100.00;97839.28;2038064;29;20239;-72
2021/11/26 04:30:32;;;;;;;131.65;71.53;;;;;;;1.64;100.00;97835.59;2038184;29;20454;-72
2021/11/26 04:31:34;;;;;;;138.23;72.55;;;;;;;1.64;100.00;97827.72;2038874;28;20825;-72
2021/11/26 04:32:35;;;;;;;152.48;72.70;;;;;;;1.66;100.00;97823.00;2038956;28;20230;-72
2021/11/26 04:33:37;;;;;;;139.50;72.13;;;;;;;1.67;100.00;97824.56;2038030;29;20359;-72
2021/11/26 04:34:38;;;;;;;141.85;73.72;;;;;;;1.68;100.00;97823.50;2029775;29;20235;-72
2021/11/26 04:35:39;;;;;;;137.13;71.27;;;;;;;1.65;100.00;97823.25;2038052;29;20234;-72
2021/11/26 04:36:41;;;;;;;146.02;72.07;;;;;;;1.67;100.00;97821.94;2038034;29;20658;-72
2021/11/26 04:37:42;;;;;;;148.55;73.18;;;;;;;1.67;100.00;97824.56;2038724;28;20293;-72
2021/11/26 04:38:50;;;;;;;133.00;70.82;;;;;;;1.64;100.00;97819.03;2038757;28;20305;-72
2021/11/26 04:39:52;;;;;;;141.73;72.50;;;;;;;1.65;100.00;97826.69;2038596;28;20713;-72
2021/11/26 04:40:54;;;;;;;135.88;69.82;;;;;;;1.64;100.00;97817.19;2037628;29;20234;-72
2021/11/26 04:41:55;;;;;;;131.45;69.82;;;;;;;1.64;100.00;97821.66;2037999;29;20650;-72